createdAt,value
2017-08-03T00:00:27.683Z,80.66
2017-08-03T00:01:08.577Z,80.57
2017-08-03T00:01:49.479Z,80.66
2017-08-03T00:02:30.362Z,81.15
2017-08-03T00:03:11.265Z,80.47
2017-08-03T00:03:52.156Z,80.86
2017-08-03T00:04:33.043Z,80.57
2017-08-03T00:05:13.938Z,79.8
2017-08-03T00:05:54.862Z,79.6
2017-08-03T00:06:35.750Z,80.28
2017-08-03T00:07:16.638Z,80.03
2017-08-03T00:07:57.553Z,79.89
2017-08-03T00:08:38.454Z,79.99
2017-08-03T00:09:19.344Z,79.93
2017-08-03T00:10:00.232Z,79.16
2017-08-03T00:10:41.134Z,79.45
2017-08-03T00:11:22.049Z,79.35
2017-08-03T00:12:02.941Z,79.45
2017-08-03T00:12:43.823Z,79.16
2017-08-03T00:13:24.721Z,78.48
2017-08-03T00:14:05.611Z,78.67
2017-08-03T00:14:46.509Z,79.06
2017-08-03T00:15:27.407Z,78.67
2017-08-03T00:16:08.302Z,78.38
2017-08-03T00:16:49.200Z,78.58
2017-08-03T00:17:30.092Z,78.58
2017-08-03T00:18:10.983Z,78.96
2017-08-03T00:18:51.879Z,78.67
2017-08-03T00:19:32.778Z,77.9
2017-08-03T00:20:13.678Z,78.23
2017-08-03T00:20:54.617Z,78.77
2017-08-03T00:21:35.508Z,78.58
2017-08-03T00:22:16.414Z,78.23
2017-08-03T00:22:57.317Z,77.8
2017-08-03T00:23:38.205Z,78.19
2017-08-03T00:24:19.095Z,78.29
2017-08-03T00:24:59.992Z,77.61
2017-08-03T00:25:40.879Z,78.67
2017-08-03T00:26:21.784Z,78.48
2017-08-03T00:27:02.672Z,78.77
2017-08-03T00:27:43.571Z,78
2017-08-03T00:28:24.468Z,78.09
2017-08-03T00:29:05.359Z,77.61
2017-08-03T00:29:46.251Z,78.19
2017-08-03T00:30:27.143Z,78
2017-08-03T00:31:08.052Z,77.9
2017-08-03T00:31:48.955Z,78.09
2017-08-03T00:32:29.845Z,78.09
2017-08-03T00:33:10.748Z,78.67
2017-08-03T00:33:51.638Z,78.67
2017-08-03T00:34:32.539Z,78.77
2017-08-03T00:35:13.449Z,78.77
2017-08-03T00:35:54.334Z,78.58
2017-08-03T00:36:35.241Z,79.16
2017-08-03T00:37:16.134Z,78.96
2017-08-03T00:37:57.037Z,79.25
2017-08-03T00:38:37.961Z,79.45
2017-08-03T00:39:18.857Z,79.45
2017-08-03T00:39:59.751Z,79.06
2017-08-03T00:40:40.659Z,79.45
2017-08-03T00:41:21.551Z,80.03
2017-08-03T00:42:02.444Z,79.64
2017-08-03T00:42:43.347Z,79.83
2017-08-03T00:43:24.241Z,80.12
2017-08-03T00:44:05.141Z,79.45
2017-08-03T00:44:46.037Z,79.5
2017-08-03T00:45:26.927Z,79.8
2017-08-03T00:46:07.834Z,80.38
2017-08-03T00:46:48.737Z,80.57
2017-08-03T00:47:29.627Z,80.86
2017-08-03T00:48:10.525Z,80.38
2017-08-03T00:48:51.427Z,80.86
2017-08-03T00:49:32.334Z,80.95
2017-08-03T00:50:13.224Z,80.95
2017-08-03T00:50:54.122Z,81.34
2017-08-03T00:51:35.014Z,81.34
2017-08-03T00:52:15.913Z,81.44
2017-08-03T00:52:56.798Z,81.63
2017-08-03T00:53:37.686Z,81.53
2017-08-03T00:54:18.582Z,81.82
2017-08-03T00:54:59.458Z,81.63
2017-08-03T00:55:40.342Z,80.66
2017-08-03T00:56:21.262Z,80.76
2017-08-03T00:57:02.151Z,80.66
2017-08-03T00:57:43.045Z,81.15
2017-08-03T00:58:23.952Z,81.34
2017-08-03T00:59:04.844Z,81.34
2017-08-03T00:59:45.743Z,80.66
2017-08-03T01:00:26.631Z,80.66
2017-08-03T01:01:07.538Z,81.05
2017-08-03T01:01:48.463Z,80.86
2017-08-03T01:02:29.355Z,81.15
2017-08-03T01:03:10.261Z,80.66
2017-08-03T01:03:51.156Z,81.53
2017-08-03T01:04:32.061Z,81.44
2017-08-03T01:05:12.954Z,81.34
2017-08-03T01:05:53.847Z,81.15
2017-08-03T01:06:34.748Z,81.05
2017-08-03T01:07:15.639Z,81.44
2017-08-03T01:07:56.549Z,81.53
2017-08-03T01:08:37.437Z,81.82
2017-08-03T01:09:18.345Z,81.44
2017-08-03T01:09:59.235Z,81.82
2017-08-03T01:10:40.106Z,81.63
2017-08-03T01:11:20.994Z,82.02
2017-08-03T01:12:01.891Z,82.21
2017-08-03T01:12:42.802Z,82.5
2017-08-03T01:13:23.697Z,81.82
2017-08-03T01:14:04.595Z,81.73
2017-08-03T01:14:45.489Z,82.02
2017-08-03T01:15:26.392Z,81.92
2017-08-03T01:16:07.280Z,82.21
2017-08-03T01:16:48.184Z,82.11
2017-08-03T01:17:29.071Z,83.18
2017-08-03T01:18:09.953Z,83.23
2017-08-03T01:18:50.864Z,83.72
2017-08-03T01:19:31.769Z,83.72
2017-08-03T01:20:12.659Z,83.37
2017-08-03T01:20:53.567Z,83.18
2017-08-03T01:21:34.468Z,83.37
2017-08-03T01:22:15.365Z,82.79
2017-08-03T01:22:56.263Z,82.31
2017-08-03T01:23:37.148Z,82.31
2017-08-03T01:24:18.040Z,82.31
2017-08-03T01:24:58.940Z,82.21
2017-08-03T01:25:39.823Z,82.21
2017-08-03T01:26:20.733Z,82.4
2017-08-03T01:27:01.643Z,82.31
2017-08-03T01:27:42.530Z,82.02
2017-08-03T01:28:23.428Z,83.18
2017-08-03T01:29:04.315Z,83.08
2017-08-03T01:29:45.221Z,82.6
2017-08-03T01:30:26.107Z,83.14
2017-08-03T01:31:07.000Z,82.75
2017-08-03T01:31:47.901Z,83.91
2017-08-03T01:32:28.792Z,83.23
2017-08-03T01:33:09.686Z,83.72
2017-08-03T01:33:50.578Z,83.91
2017-08-03T01:34:31.477Z,83.91
2017-08-03T01:35:12.370Z,84.48
2017-08-03T01:35:53.263Z,84.39
2017-08-03T01:36:34.164Z,84.58
2017-08-03T01:37:15.078Z,84.68
2017-08-03T01:37:55.968Z,85.41
2017-08-03T01:38:36.871Z,85.22
2017-08-03T01:39:17.768Z,85.41
2017-08-03T01:39:58.667Z,85.22
2017-08-03T01:40:39.563Z,85.6
2017-08-03T01:41:20.461Z,85.89
2017-08-03T01:42:01.356Z,86.08
2017-08-03T01:42:42.256Z,85.41
2017-08-03T01:43:23.148Z,85.89
2017-08-03T01:44:04.054Z,86.08
2017-08-03T01:44:44.948Z,86.28
2017-08-03T01:45:25.839Z,86.28
2017-08-03T01:46:06.740Z,86.76
2017-08-03T01:46:47.636Z,86.57
2017-08-03T01:47:28.536Z,86.57
2017-08-03T01:48:09.427Z,86.86
2017-08-03T01:48:50.319Z,86.57
2017-08-03T01:49:31.215Z,86.47
2017-08-03T01:50:12.123Z,86.38
2017-08-03T01:50:53.036Z,87.05
2017-08-03T01:51:33.934Z,87.44
2017-08-03T01:52:14.833Z,87.24
2017-08-03T01:52:55.731Z,87.24
2017-08-03T01:53:36.617Z,87.15
2017-08-03T01:54:17.513Z,87.15
2017-08-03T01:54:58.416Z,87.15
2017-08-03T01:55:39.350Z,87.24
2017-08-03T01:56:20.255Z,86.96
2017-08-03T01:57:01.152Z,86.66
2017-08-03T01:57:42.051Z,87.63
2017-08-03T01:58:22.952Z,87.53
2017-08-03T01:59:03.849Z,87.34
2017-08-03T01:59:44.748Z,87.63
2017-08-03T02:00:25.653Z,88.31
2017-08-03T02:01:06.548Z,88.02
2017-08-03T02:01:47.448Z,88.11
2017-08-03T02:02:28.360Z,87.53
2017-08-03T02:03:09.255Z,87.53
2017-08-03T02:03:50.155Z,87.63
2017-08-03T02:04:31.046Z,87.53
2017-08-03T02:05:11.947Z,87.34
2017-08-03T02:05:52.839Z,88.02
2017-08-03T02:06:33.755Z,88.55
2017-08-03T02:07:14.628Z,88.65
2017-08-03T02:07:55.538Z,88.36
2017-08-03T02:08:36.426Z,88.36
2017-08-03T02:09:17.332Z,88.07
2017-08-03T02:09:58.231Z,88.11
2017-08-03T02:10:39.121Z,88.21
2017-08-03T02:11:20.020Z,88.21
2017-08-03T02:12:00.913Z,87.92
2017-08-03T02:12:41.798Z,88.4
2017-08-03T02:13:22.715Z,88.26
2017-08-03T02:14:03.607Z,88.45
2017-08-03T02:14:44.496Z,88.55
2017-08-03T02:15:25.400Z,88.5
2017-08-03T02:16:06.286Z,88.11
2017-08-03T02:16:47.175Z,88.5
2017-08-03T02:17:28.071Z,88.11
2017-08-03T02:18:08.969Z,88.11
2017-08-03T02:18:49.869Z,88.5
2017-08-03T02:19:30.756Z,88.59
2017-08-03T02:20:11.642Z,88.55
2017-08-03T02:20:52.523Z,88.55
2017-08-03T02:21:33.408Z,88.17
2017-08-03T02:22:14.316Z,88.55
2017-08-03T02:22:55.219Z,88.84
2017-08-03T02:23:36.105Z,88.65
2017-08-03T02:24:16.998Z,88.59
2017-08-03T02:24:57.905Z,88.79
2017-08-03T02:25:38.778Z,88.59
2017-08-03T02:26:19.667Z,88.21
2017-08-03T02:27:00.563Z,88.02
2017-08-03T02:27:41.460Z,88.11
2017-08-03T02:28:22.354Z,88.02
2017-08-03T02:29:03.255Z,88.11
2017-08-03T02:29:44.163Z,88.31
2017-08-03T02:30:25.054Z,88.5
2017-08-03T02:31:05.946Z,88.11
2017-08-03T02:31:46.837Z,88.4
2017-08-03T02:32:27.732Z,88.35
2017-08-03T02:33:08.630Z,87.87
2017-08-03T02:33:49.527Z,87.48
2017-08-03T02:34:30.421Z,87.48
2017-08-03T02:35:11.312Z,87.58
2017-08-03T02:35:52.212Z,87.67
2017-08-03T02:36:33.117Z,88.45
2017-08-03T02:37:14.015Z,88.45
2017-08-03T02:37:54.912Z,88.31
2017-08-03T02:38:35.804Z,87.77
2017-08-03T02:39:16.703Z,87.48
2017-08-03T02:39:57.596Z,87.67
2017-08-03T02:40:38.472Z,87.87
2017-08-03T02:41:19.381Z,87.58
2017-08-03T02:42:00.271Z,87.58
2017-08-03T02:42:41.176Z,87.38
2017-08-03T02:43:22.066Z,87.96
2017-08-03T02:44:02.969Z,87.77
2017-08-03T02:44:43.865Z,87.67
2017-08-03T02:45:24.769Z,87.87
2017-08-03T02:46:05.659Z,87.48
2017-08-03T02:46:46.569Z,88.25
2017-08-03T02:47:27.455Z,88.25
2017-08-03T02:48:08.346Z,88.73
2017-08-03T02:48:49.250Z,88.73
2017-08-03T02:49:30.140Z,88.69
2017-08-03T02:50:11.043Z,88.45
2017-08-03T02:50:51.932Z,88.64
2017-08-03T02:51:32.836Z,88.89
2017-08-03T02:52:13.732Z,88.69
2017-08-03T02:52:54.626Z,89.37
2017-08-03T02:53:35.521Z,89.56
2017-08-03T02:54:16.414Z,88.83
2017-08-03T02:54:57.308Z,88.64
2017-08-03T02:55:38.207Z,88.83
2017-08-03T02:56:19.089Z,89.03
2017-08-03T02:56:59.984Z,88.64
2017-08-03T02:57:40.871Z,88.73
2017-08-03T02:58:21.767Z,88.64
2017-08-03T02:59:02.664Z,89.22
2017-08-03T02:59:43.566Z,88.73
2017-08-03T03:00:24.446Z,88.73
2017-08-03T03:01:05.338Z,89.22
2017-08-03T03:01:46.232Z,89.31
2017-08-03T03:02:27.124Z,89.37
2017-08-03T03:03:08.007Z,89.17
2017-08-03T03:03:48.908Z,89.17
2017-08-03T03:04:29.794Z,89.37
2017-08-03T03:05:10.692Z,90.05
2017-08-03T03:05:51.591Z,89.85
2017-08-03T03:06:32.545Z,89.75
2017-08-03T03:07:13.444Z,89.56
2017-08-03T03:07:54.327Z,89.47
2017-08-03T03:08:35.233Z,90.33
2017-08-03T03:09:16.141Z,90.33
2017-08-03T03:09:57.053Z,89.65
2017-08-03T03:10:37.955Z,89.95
2017-08-03T03:11:18.841Z,89.85
2017-08-03T03:11:59.719Z,89.65
2017-08-03T03:12:40.607Z,90.14
2017-08-03T03:13:21.499Z,90.23
2017-08-03T03:14:02.394Z,89.56
2017-08-03T03:14:43.278Z,89.95
2017-08-03T03:15:24.192Z,90.62
2017-08-03T03:16:05.107Z,89.85
2017-08-03T03:16:46.007Z,89.47
2017-08-03T03:17:26.903Z,89.65
2017-08-03T03:18:07.798Z,89.85
2017-08-03T03:18:48.692Z,90.23
2017-08-03T03:19:29.580Z,89.85
2017-08-03T03:20:10.477Z,89.85
2017-08-03T03:20:51.382Z,89.85
2017-08-03T03:21:32.267Z,90.23
2017-08-03T03:22:13.156Z,89.75
2017-08-03T03:22:54.055Z,89.31
2017-08-03T03:23:34.951Z,89.61
2017-08-03T03:24:15.867Z,89.31
2017-08-03T03:24:56.761Z,89.12
2017-08-03T03:25:37.650Z,89.95
2017-08-03T03:26:18.550Z,90.23
2017-08-03T03:26:59.440Z,90.23
2017-08-03T03:27:40.336Z,90.38
2017-08-03T03:28:21.233Z,90.43
2017-08-03T03:29:02.121Z,90.62
2017-08-03T03:29:43.003Z,90.53
2017-08-03T03:30:23.906Z,90.33
2017-08-03T03:31:04.800Z,90.53
2017-08-03T03:31:45.709Z,89.79
2017-08-03T03:32:26.603Z,89.7
2017-08-03T03:33:07.492Z,89.51
2017-08-03T03:33:48.392Z,89.51
2017-08-03T03:34:29.283Z,89.65
2017-08-03T03:35:10.204Z,89.85
2017-08-03T03:35:51.133Z,89.89
2017-08-03T03:36:32.012Z,89.85
2017-08-03T03:37:12.896Z,89.85
2017-08-03T03:37:53.794Z,89.75
2017-08-03T03:38:34.687Z,89.41
2017-08-03T03:39:15.588Z,89.47
2017-08-03T03:39:56.477Z,89.65
2017-08-03T03:40:37.376Z,90.33
2017-08-03T03:41:18.255Z,89.56
2017-08-03T03:41:59.147Z,89.17
2017-08-03T03:42:40.062Z,89.99
2017-08-03T03:43:20.940Z,90.09
2017-08-03T03:44:01.830Z,90.23
2017-08-03T03:44:42.718Z,90.05
2017-08-03T03:45:23.616Z,90.33
2017-08-03T03:46:04.535Z,90.23
2017-08-03T03:46:45.428Z,90.23
2017-08-03T03:47:26.327Z,90.14
2017-08-03T03:48:07.219Z,89.85
2017-08-03T03:48:48.116Z,90.33
2017-08-03T03:49:29.026Z,90.05
2017-08-03T03:50:09.910Z,90.33
2017-08-03T03:50:50.790Z,90.33
2017-08-03T03:51:31.692Z,90.14
2017-08-03T03:52:12.589Z,90.14
2017-08-03T03:52:53.485Z,90.53
2017-08-03T03:53:34.396Z,89.85
2017-08-03T03:54:15.268Z,89.47
2017-08-03T03:54:56.152Z,89.75
2017-08-03T03:55:37.057Z,90.23
2017-08-03T03:56:17.948Z,89.89
2017-08-03T03:56:58.839Z,90.14
2017-08-03T03:57:39.740Z,89.75
2017-08-03T03:58:20.634Z,90.28
2017-08-03T03:59:01.541Z,89.89
2017-08-03T03:59:42.440Z,89.99
2017-08-03T04:00:23.333Z,90.28
2017-08-03T04:01:04.228Z,90.05
2017-08-03T04:01:45.117Z,90.43
2017-08-03T04:02:26.006Z,90.53
2017-08-03T04:03:06.908Z,90.53
2017-08-03T04:03:47.796Z,90.53
2017-08-03T04:04:28.719Z,89.95
2017-08-03T04:05:09.612Z,89.75
2017-08-03T04:05:50.504Z,89.79
2017-08-03T04:06:31.408Z,89.89
2017-08-03T04:07:12.347Z,90.23
2017-08-03T04:07:53.228Z,90.28
2017-08-03T04:08:34.115Z,89.7
2017-08-03T04:09:15.009Z,89.79
2017-08-03T04:09:55.909Z,89.31
2017-08-03T04:10:36.788Z,89.31
2017-08-03T04:11:17.684Z,89.61
2017-08-03T04:11:58.579Z,89.61
2017-08-03T04:12:39.458Z,89.22
2017-08-03T04:13:20.354Z,89.31
2017-08-03T04:14:01.272Z,89.51
2017-08-03T04:14:42.146Z,89.31
2017-08-03T04:15:23.040Z,89.31
2017-08-03T04:16:03.932Z,89.41
2017-08-03T04:16:44.823Z,88.93
2017-08-03T04:17:25.726Z,89.03
2017-08-03T04:18:06.639Z,88.78
2017-08-03T04:18:47.518Z,88.87
2017-08-03T04:19:28.420Z,88.49
2017-08-03T04:20:09.311Z,88.49
2017-08-03T04:20:50.212Z,89.07
2017-08-03T04:21:31.105Z,88.45
2017-08-03T04:22:11.998Z,88.78
2017-08-03T04:22:52.912Z,88.83
2017-08-03T04:23:33.789Z,89.41
2017-08-03T04:24:14.687Z,89.51
2017-08-03T04:24:55.587Z,89.31
2017-08-03T04:25:36.527Z,89.7
2017-08-03T04:26:17.421Z,89.41
2017-08-03T04:26:58.331Z,89.12
2017-08-03T04:27:39.234Z,88.73
2017-08-03T04:28:20.125Z,88.93
2017-08-03T04:29:01.047Z,88.87
2017-08-03T04:29:41.933Z,88.87
2017-08-03T04:30:22.818Z,88.93
2017-08-03T04:31:03.718Z,88.83
2017-08-03T04:31:44.608Z,89.03
2017-08-03T04:32:25.501Z,88.78
2017-08-03T04:33:06.425Z,88.68
2017-08-03T04:33:47.317Z,88.78
2017-08-03T04:34:28.218Z,88.29
2017-08-03T04:36:06.685Z,87.91
2017-08-03T04:36:47.589Z,88.29
2017-08-03T04:37:28.481Z,88.29
2017-08-03T04:38:09.381Z,88.49
2017-08-03T04:38:50.275Z,88.68
2017-08-03T04:39:31.170Z,88.29
2017-08-03T04:40:12.069Z,88.39
2017-08-03T04:40:52.959Z,88.87
2017-08-03T04:41:33.845Z,88.49
2017-08-03T04:42:14.744Z,87.91
2017-08-03T04:42:55.626Z,87.85
2017-08-03T04:43:36.528Z,87.66
2017-08-03T04:44:17.448Z,87.95
2017-08-03T04:44:58.344Z,87.66
2017-08-03T04:45:39.249Z,87.85
2017-08-03T04:46:20.119Z,88.43
2017-08-03T04:47:01.024Z,88.39
2017-08-03T04:47:41.924Z,88.39
2017-08-03T04:48:22.810Z,88.78
2017-08-03T04:49:03.702Z,88.39
2017-08-03T04:49:44.600Z,88.29
2017-08-03T04:50:25.482Z,87.76
2017-08-03T04:51:06.374Z,87.66
2017-08-03T04:51:47.267Z,87.95
2017-08-03T04:52:28.161Z,87.57
2017-08-03T04:53:09.059Z,87.95
2017-08-03T04:53:49.940Z,87.85
2017-08-03T04:54:30.826Z,87.95
2017-08-03T04:55:11.709Z,87.66
2017-08-03T04:55:52.616Z,87.85
2017-08-03T04:56:33.501Z,87.85
2017-08-03T04:57:14.372Z,88.63
2017-08-03T04:57:55.272Z,88.15
2017-08-03T04:58:36.176Z,88.34
2017-08-03T04:59:17.060Z,88.34
2017-08-03T04:59:57.970Z,88.34
2017-08-03T05:00:38.866Z,88.29
2017-08-03T05:01:19.796Z,88.2
2017-08-03T05:02:00.699Z,88.68
2017-08-03T05:02:41.614Z,88.39
2017-08-03T05:03:22.515Z,88.68
2017-08-03T05:04:03.438Z,88.68
2017-08-03T05:04:44.330Z,88.78
2017-08-03T05:05:25.239Z,88.97
2017-08-03T05:06:06.139Z,88.87
2017-08-03T05:06:47.041Z,88.87
2017-08-03T05:07:27.933Z,88.78
2017-08-03T05:08:08.830Z,88.93
2017-08-03T05:08:49.734Z,89.41
2017-08-03T05:09:30.627Z,89.41
2017-08-03T05:10:11.526Z,89.22
2017-08-03T05:10:52.447Z,89.12
2017-08-03T05:11:33.336Z,89.61
2017-08-03T05:12:14.229Z,90.28
2017-08-03T05:12:55.123Z,89.89
2017-08-03T05:13:36.004Z,89.79
2017-08-03T05:14:16.904Z,89.7
2017-08-03T05:14:57.796Z,90.28
2017-08-03T05:15:38.688Z,90.19
2017-08-03T05:16:19.602Z,90.19
2017-08-03T05:17:00.490Z,89.79
2017-08-03T05:17:41.380Z,90.09
2017-08-03T05:18:22.267Z,90.09
2017-08-03T05:19:03.157Z,89.65
2017-08-03T05:19:44.076Z,89.45
2017-08-03T05:20:24.959Z,89.45
2017-08-03T05:21:05.840Z,89.55
2017-08-03T05:21:46.734Z,89.26
2017-08-03T05:22:27.633Z,89.36
2017-08-03T05:23:08.516Z,89.36
2017-08-03T05:23:49.425Z,89.36
2017-08-03T05:24:30.314Z,89.45
2017-08-03T05:25:11.211Z,90.03
2017-08-03T05:25:52.105Z,89.45
2017-08-03T05:26:32.997Z,89.89
2017-08-03T05:27:13.885Z,89.7
2017-08-03T05:27:54.780Z,90.09
2017-08-03T05:28:35.664Z,90.28
2017-08-03T05:29:16.549Z,90.19
2017-08-03T05:29:57.461Z,89.7
2017-08-03T05:30:38.357Z,89.99
2017-08-03T05:31:19.251Z,90.19
2017-08-03T05:32:00.140Z,90.28
2017-08-03T05:32:41.033Z,90.28
2017-08-03T05:33:21.922Z,89.99
2017-08-03T05:34:02.839Z,90.09
2017-08-03T05:34:43.729Z,90.09
2017-08-03T05:35:24.632Z,89.7
2017-08-03T05:36:05.516Z,89.79
2017-08-03T05:36:46.393Z,89.61
2017-08-03T05:37:27.280Z,90.09
2017-08-03T05:38:08.174Z,89.89
2017-08-03T05:38:49.071Z,89.7
2017-08-03T05:39:29.977Z,89.89
2017-08-03T05:40:10.866Z,89.89
2017-08-03T05:40:51.754Z,89.79
2017-08-03T05:41:32.651Z,89.61
2017-08-03T05:42:13.545Z,89.99
2017-08-03T05:42:54.442Z,89.79
2017-08-03T05:43:35.334Z,89.7
2017-08-03T05:44:16.242Z,89.7
2017-08-03T05:44:57.139Z,89.31
2017-08-03T05:45:38.036Z,89.31
2017-08-03T05:46:18.920Z,89.26
2017-08-03T05:46:59.821Z,89.36
2017-08-03T05:48:27.944Z,89.26
2017-08-03T05:49:08.835Z,89.17
2017-08-03T05:49:49.729Z,89.55
2017-08-03T05:50:30.617Z,89.36
2017-08-03T05:51:11.515Z,88.73
2017-08-03T05:51:52.402Z,88.92
2017-08-03T05:52:33.293Z,88.53
2017-08-03T05:53:14.198Z,88.48
2017-08-03T05:53:55.089Z,88.67
2017-08-03T05:54:35.975Z,88.87
2017-08-03T05:55:16.864Z,88.39
2017-08-03T05:57:16.732Z,87.9
2017-08-03T05:57:57.623Z,87.81
2017-08-03T05:58:38.515Z,87.71
2017-08-03T05:59:19.424Z,87.9
2017-08-03T06:00:00.309Z,87.51
2017-08-03T06:00:41.201Z,87.03
2017-08-03T06:01:22.091Z,87.32
2017-08-03T06:02:02.996Z,86.74
2017-08-03T06:02:43.881Z,86.74
2017-08-03T06:03:24.779Z,86.83
2017-08-03T06:04:05.673Z,86.25
2017-08-03T06:04:46.585Z,86.06
2017-08-03T06:05:27.489Z,86.25
2017-08-03T06:06:08.383Z,86.16
2017-08-03T06:06:49.280Z,86.1
2017-08-03T06:07:30.169Z,86.1
2017-08-03T06:08:11.071Z,85.91
2017-08-03T06:08:51.982Z,86.88
2017-08-03T06:09:32.870Z,86.4
2017-08-03T06:10:13.754Z,86.2
2017-08-03T06:10:54.657Z,86.73
2017-08-03T06:11:35.548Z,85.47
2017-08-03T06:12:16.467Z,85.28
2017-08-03T06:12:57.382Z,84.55
2017-08-03T06:13:38.288Z,84.64
2017-08-03T06:14:19.170Z,85.47
2017-08-03T06:15:00.064Z,85.76
2017-08-03T06:15:40.964Z,85.57
2017-08-03T06:16:21.863Z,85.31
2017-08-03T06:17:02.762Z,84.06
2017-08-03T06:17:43.651Z,83.58
2017-08-03T06:18:24.534Z,83.18
2017-08-03T06:19:05.441Z,82.7
2017-08-03T06:19:46.349Z,82.7
2017-08-03T06:20:27.261Z,83
2017-08-03T06:21:08.163Z,83.67
2017-08-03T06:21:49.047Z,83.96
2017-08-03T06:22:29.950Z,83.96
2017-08-03T06:23:10.875Z,83.96
2017-08-03T06:23:51.783Z,83.58
2017-08-03T06:24:32.666Z,83.09
2017-08-03T06:25:13.557Z,83.48
2017-08-03T06:25:54.476Z,82.51
2017-08-03T06:26:35.366Z,83.28
2017-08-03T06:27:16.264Z,82.75
2017-08-03T06:27:57.159Z,82.59
2017-08-03T06:28:38.062Z,81.68
2017-08-03T06:29:18.969Z,81.68
2017-08-03T06:29:59.859Z,82.07
2017-08-03T06:30:40.753Z,82.07
2017-08-03T06:31:21.655Z,81.68
2017-08-03T06:32:02.557Z,81.43
2017-08-03T06:32:43.476Z,81.23
2017-08-03T06:33:24.375Z,80.65
2017-08-03T06:34:05.280Z,80.65
2017-08-03T06:34:46.181Z,80.4
2017-08-03T06:35:27.086Z,79.43
2017-08-03T06:36:07.983Z,78.59
2017-08-03T06:36:48.881Z,78.31
2017-08-03T06:37:29.791Z,77.72
2017-08-03T06:38:10.678Z,77.53
2017-08-03T06:38:51.572Z,77.18
2017-08-03T06:39:32.467Z,76.79
2017-08-03T06:40:13.365Z,77.22
2017-08-03T06:40:54.340Z,76.89
2017-08-03T06:41:35.209Z,76.92
2017-08-03T06:42:16.107Z,76.44
2017-08-03T06:42:57.003Z,75.99
2017-08-03T06:43:37.915Z,74.82
2017-08-03T06:44:18.823Z,74.24
2017-08-03T06:44:59.778Z,73.85
2017-08-03T06:45:40.699Z,73.37
2017-08-03T06:46:21.584Z,73.95
2017-08-03T06:47:02.478Z,73.85
2017-08-03T06:47:43.380Z,73.95
2017-08-03T06:48:24.281Z,72.98
2017-08-03T06:49:05.180Z,72.59
2017-08-03T06:49:46.082Z,72.78
2017-08-03T06:50:26.990Z,72.59
2017-08-03T06:51:07.923Z,72.39
2017-08-03T06:51:48.808Z,71.33
2017-08-03T06:52:29.708Z,71.91
2017-08-03T06:53:10.613Z,72.78
2017-08-03T06:53:51.513Z,72.78
2017-08-03T06:54:32.467Z,73.43
2017-08-03T06:55:13.356Z,74.05
2017-08-03T06:55:54.262Z,73.46
2017-08-03T06:56:35.148Z,73.08
2017-08-03T06:57:16.044Z,73.91
2017-08-03T06:57:56.951Z,75.2
2017-08-03T06:58:37.830Z,76.31
2017-08-03T06:59:18.748Z,75.53
2017-08-03T06:59:59.648Z,74.88
2017-08-03T07:00:40.533Z,74.3
2017-08-03T07:01:21.456Z,73.68
2017-08-03T07:02:02.374Z,75.84
2017-08-03T07:02:43.267Z,75.59
2017-08-03T07:03:24.164Z,75.88
2017-08-03T07:04:05.085Z,76.31
2017-08-03T07:04:45.972Z,75.53
2017-08-03T07:05:26.873Z,74.88
2017-08-03T07:06:07.764Z,74.01
2017-08-03T07:06:48.662Z,74.21
2017-08-03T07:08:22.007Z,74.65
2017-08-03T07:09:02.908Z,74.75
2017-08-03T07:09:43.805Z,74.46
2017-08-03T07:10:24.725Z,74.85
2017-08-03T07:11:05.631Z,75.14
2017-08-03T07:11:46.510Z,74.56
2017-08-03T07:12:27.529Z,74.65
2017-08-03T07:13:08.430Z,74.85
2017-08-03T07:13:49.325Z,74.85
2017-08-03T07:14:30.252Z,74.37
2017-08-03T07:15:11.163Z,74.56
2017-08-03T07:15:52.066Z,74.85
2017-08-03T07:16:32.951Z,75.14
2017-08-03T07:17:13.838Z,74.85
2017-08-03T07:17:54.735Z,75.34
2017-08-03T07:18:35.625Z,74.65
2017-08-03T07:19:16.518Z,74.56
2017-08-03T07:19:57.427Z,74.01
2017-08-03T07:20:38.313Z,73.62
2017-08-03T07:21:19.205Z,73.78
2017-08-03T07:22:00.101Z,73.3
2017-08-03T07:22:41.000Z,74.07
2017-08-03T07:23:21.906Z,73.78
2017-08-03T07:24:02.800Z,74.37
2017-08-03T07:24:43.707Z,75.01
2017-08-03T07:25:24.644Z,74.81
2017-08-03T07:26:05.549Z,75.98
2017-08-03T07:26:46.449Z,76.46
2017-08-03T07:27:27.344Z,76.52
2017-08-03T07:28:08.244Z,76.81
2017-08-03T07:28:49.128Z,76.95
2017-08-03T07:29:30.036Z,77.24
2017-08-03T07:30:10.921Z,77.14
2017-08-03T07:30:51.887Z,77.34
2017-08-03T07:31:32.762Z,77.62
2017-08-03T07:32:13.661Z,77.92
2017-08-03T07:32:54.561Z,78.46
2017-08-03T07:33:35.453Z,78.31
2017-08-03T07:34:16.353Z,77.82
2017-08-03T07:34:57.260Z,77.92
2017-08-03T07:35:38.160Z,78.36
2017-08-03T07:36:19.051Z,78.46
2017-08-03T07:36:59.946Z,78.46
2017-08-03T07:37:40.867Z,78.36
2017-08-03T07:38:21.768Z,78.31
2017-08-03T07:39:02.672Z,77.62
2017-08-03T07:39:43.579Z,78.11
2017-08-03T07:40:24.482Z,77.53
2017-08-03T07:41:05.381Z,77.92
2017-08-03T07:41:46.277Z,76.56
2017-08-03T07:42:27.182Z,75.59
2017-08-03T07:43:08.098Z,76.65
2017-08-03T07:43:48.992Z,77.34
2017-08-03T07:44:29.892Z,76.4
2017-08-03T07:45:10.799Z,77.34
2017-08-03T07:45:51.710Z,77.62
2017-08-03T07:46:32.626Z,77.53
2017-08-03T07:47:13.529Z,77.08
2017-08-03T07:47:54.407Z,76.69
2017-08-03T07:48:35.306Z,76.01
2017-08-03T07:49:16.191Z,76.11
2017-08-03T07:49:57.074Z,76.11
2017-08-03T07:50:37.965Z,76.4
2017-08-03T07:51:18.863Z,76.89
2017-08-03T07:51:59.733Z,77.08
2017-08-03T07:52:40.602Z,77.24
2017-08-03T07:53:21.493Z,77.34
2017-08-03T07:54:02.394Z,77.28
2017-08-03T07:54:43.265Z,77.43
2017-08-03T07:55:24.142Z,78.11
2017-08-03T07:56:05.044Z,77.62
2017-08-03T07:56:45.946Z,77.92
2017-08-03T07:57:26.821Z,77.92
2017-08-03T07:58:07.709Z,77.43
2017-08-03T07:58:48.582Z,78.21
2017-08-03T07:59:29.464Z,78.31
2017-08-03T08:00:10.357Z,76.27
2017-08-03T08:00:51.243Z,76.42
2017-08-03T08:01:32.125Z,77.01
2017-08-03T08:02:13.002Z,76.91
2017-08-03T08:02:53.873Z,77.88
2017-08-03T08:03:34.762Z,78.56
2017-08-03T08:04:15.633Z,79.33
2017-08-03T08:04:56.533Z,79.33
2017-08-03T08:05:37.407Z,79.33
2017-08-03T08:06:18.274Z,79.33
2017-08-03T08:06:59.186Z,79.33
2017-08-03T08:07:40.071Z,78.46
2017-08-03T08:08:20.976Z,78.75
2017-08-03T08:09:01.847Z,78.66
2017-08-03T08:09:42.725Z,78.75
2017-08-03T08:10:23.607Z,79.43
2017-08-03T08:11:04.493Z,79.72
2017-08-03T08:11:45.381Z,80.17
2017-08-03T08:12:26.295Z,80.5
2017-08-03T08:13:07.180Z,79.72
2017-08-03T08:13:48.104Z,80.5
2017-08-03T08:14:29.042Z,80.01
2017-08-03T08:15:09.924Z,79.91
2017-08-03T08:15:50.812Z,80.21
2017-08-03T08:16:31.708Z,79.04
2017-08-03T08:17:12.601Z,79.14
2017-08-03T08:17:53.484Z,79.33
2017-08-03T08:18:34.361Z,79.91
2017-08-03T08:19:15.236Z,79.33
2017-08-03T08:19:56.120Z,78.94
2017-08-03T08:20:36.983Z,79.24
2017-08-03T08:21:17.895Z,78.75
2017-08-03T08:21:58.778Z,78.85
2017-08-03T08:22:39.671Z,78.07
2017-08-03T08:23:20.554Z,79.2
2017-08-03T08:24:01.442Z,78.27
2017-08-03T08:24:42.318Z,77.98
2017-08-03T08:25:23.192Z,78.36
2017-08-03T08:26:04.067Z,78.27
2017-08-03T08:26:44.967Z,77.78
2017-08-03T08:27:25.848Z,78.17
2017-08-03T08:28:06.748Z,78.27
2017-08-03T08:28:47.644Z,78.17
2017-08-03T08:29:28.521Z,77.92
2017-08-03T08:30:09.413Z,78.11
2017-08-03T08:30:50.296Z,77.82
2017-08-03T08:31:31.199Z,77.14
2017-08-03T08:32:12.083Z,76.95
2017-08-03T08:32:52.960Z,77.43
2017-08-03T08:33:33.859Z,77.62
2017-08-03T08:34:14.828Z,77.53
2017-08-03T08:34:55.721Z,77.72
2017-08-03T08:35:36.599Z,77.72
2017-08-03T08:36:17.495Z,78.02
2017-08-03T08:36:58.392Z,77.88
2017-08-03T08:37:39.280Z,78.07
2017-08-03T08:38:20.174Z,78.46
2017-08-03T08:39:01.056Z,78.66
2017-08-03T08:39:41.958Z,78.75
2017-08-03T08:40:22.845Z,79.24
2017-08-03T08:41:03.751Z,79.04
2017-08-03T08:41:44.653Z,78.66
2017-08-03T08:42:25.549Z,78.94
2017-08-03T08:43:06.432Z,76.42
2017-08-03T08:43:47.326Z,76.78
2017-08-03T08:44:28.221Z,78.03
2017-08-03T08:45:09.090Z,78.52
2017-08-03T08:45:49.979Z,78.52
2017-08-03T08:46:30.873Z,78.81
2017-08-03T08:47:11.761Z,78.61
2017-08-03T08:47:52.642Z,78.52
2017-08-03T08:48:33.516Z,78.52
2017-08-03T08:49:14.405Z,78.61
2017-08-03T08:49:55.286Z,79.3
2017-08-03T08:50:36.180Z,77.94
2017-08-03T08:51:17.075Z,78.81
2017-08-03T08:51:57.990Z,79.3